Nearby METAR Reports

 

KMTN - Baltimore/Martin, Maryland, USA
Distance from station: SSE 8mi, 13km
Updated: Thu, 29-Jan-2015 2:55pm EST
Overcast
Overcast
 Wind from SE
Wind: SE 9 mph , 15 km/h
Temperature: 34°F , 1°C
Wind Chill: 27°F , -3°C
Dew Point: 19°F , -7°C
Humidity: 56%
Barometer: 30.17 inHg , 1021.7 hPa
Clouds: Overcast
Visibility: 10 miles , 16 km
Cloud details: Overcast 10000 ft
2015/01/29 19:55 KMTN 291955Z 13008KT 10SM OVC100 01/M07 A3017
KDMH - Baltimore/Dwntwn, Maryland, USA
Distance from station: SW 12mi, 19km
Updated: Thu, 29-Jan-2015 2:54pm EST

 
Temperature: 34°F , 1°C
Dew Point: 16°F , -9°C
Humidity: 48%
Barometer: 30.15 inHg , 1021 hPa
2015/01/29 19:54 KDMH 291954Z AUTO 01/M09 A3015 RMK AO1 SLP209 T00111094
 
KBWI - Balto/Wash Intl, Maryland, USA
Distance from station: SSW 20mi, 33km
Updated: Thu, 29-Jan-2015 2:54pm EST
Overcast
Overcast
 Wind from SE
Wind: SE 7 mph , 11 km/h
Temperature: 34°F , 1°C
Wind Chill: 28°F , -2°C
Dew Point: 14°F , -10°C
Humidity: 44%
Barometer: 30.14 inHg , 1020.7 hPa
Clouds: Overcast
Visibility: 10 miles , 16 km
Cloud details: Partly cloudy 4400 ft
Overcast 8000 ft
2015/01/29 19:54 KBWI 291954Z 14006KT 10SM SCT044 OVC080 01/M10 A3014 RMK AO2 SLP207 VIRGA OHD T00061100
KDMW - Carroll Cnty, Maryland, USA
Distance from station: WNW 30mi, 48km
Updated: Thu, 29-Jan-2015 3:05pm EST
Mostly cloudy
Mostly cloudy
 Wind from SSE
Wind: SSE 9 mph , 15 km/h, Gust: 18 mph , 30 km/h
Temperature: 30°F , -1°C
Wind Chill: 22°F , -6°C
Dew Point: 14°F , -10°C
Humidity: 51%
Barometer: 30.05 inHg , 1017.6 hPa
Clouds: Mostly cloudy
Visibility: 10 miles , 16 km
Cloud details: Mostly cloudy 6000 ft
2015/01/29 20:05 KDMW 292005Z AUTO 15008G16KT 10SM BKN060 M01/M10 A3005 RMK AO2
 
KNAK - Annapolis/Naval, Maryland, USA
Distance from station: S 30mi, 48km
Updated: Thu, 29-Jan-2015 2:54pm EST
Overcast
Overcast
 Wind from SSE
Wind: SSE 12 mph , 19 km/h
Temperature: 34°F , 1°C
Wind Chill: 25°F , -4°C
Dew Point: 21°F , -6°C
Humidity: 60%
Barometer: 30.16 inHg , 1021.3 hPa
Clouds: Overcast
Visibility: 10 miles , 16 km
Cloud details: Overcast 9500 ft
2015/01/29 19:54 KNAK 291954Z AUTO 15010KT 10SM OVC095 01/M06 A3016 RMK AO2 SLP214 T00061061
KW29 - Stevensville, Maryland, USA
Distance from station: SSE 31mi, 50km
Updated: Thu, 29-Jan-2015 3:07pm EST

 Wind from SSE
Wind: SSE 8 mph , 13 km/h
Temperature: 34°F , 1°C
Wind Chill: 27°F , -3°C
Dew Point: 14°F , -10°C
Humidity: 44%
Barometer: 30.16 inHg , 1021.3 hPa
Visibility: 10 miles , 16 km
2015/01/29 20:07 KW29 292007Z AUTO 15007KT 10SM 01/M10 A3016 RMK AO1
 
KCGS - College Park, Maryland, USA
Distance from station: SW 38mi, 61km
Updated: Thu, 29-Jan-2015 3:05pm EST
Overcast
Overcast
 Wind from ESE
Wind: ESE 6 mph , 9 km/h
Temperature: 36°F , 2°C
Wind Chill: 31°F , -1°C
Dew Point: 12°F , -11°C
Humidity: 38%
Barometer: 30.12 inHg , 1020 hPa
Clouds: Overcast
Visibility: 10 miles , 16 km
Cloud details: Overcast 8000 ft
2015/01/29 20:05 KCGS 292005Z AUTO 12005KT 10SM OVC080 02/M11 A3012 RMK AO1
KGAI - Gaithersburg, Maryland, USA
Distance from station: WSW 40mi, 65km
Updated: Thu, 29-Jan-2015 3:15pm EST
Overcast
Overcast
 Wind from SE
Wind: SE 8 mph , 13 km/h
Temperature: 34°F , 1°C
Wind Chill: 27°F , -3°C
Dew Point: 12°F , -11°C
Humidity: 41%
Barometer: 30.12 inHg , 1020 hPa
Clouds: Overcast
Visibility: 10 miles , 16 km
Cloud details: Mostly cloudy 6000 ft
Overcast 7000 ft
2015/01/29 20:15 KGAI 292015Z 13007KT 10SM BKN060 OVC070 01/M11 A3012 RMK AO1
 
KTHV - York, Pennsylvania, USA
Distance from station: NNW 40mi, 65km
Updated: Thu, 29-Jan-2015 2:53pm EST
Overcast
Overcast
 Wind from SSE
Wind: SSE 8 mph , 13 km/h
Temperature: 30°F , -1°C
Wind Chill: 22°F , -6°C
Dew Point: 10°F , -12°C
Humidity: 43%
Barometer: 30.07 inHg , 1018.3 hPa
Clouds: Overcast
Visibility: 10 miles , 16 km
Cloud details: Mostly cloudy 7500 ft
Overcast 9000 ft
2015/01/29 19:53 KTHV 291953Z AUTO 16007KT 10SM BKN075 OVC090 M01/M12 A3007 RMK AO2 SLP192 T10061117
KFDK - Frederick, Maryland, USA
Distance from station: W 47mi, 75km
Updated: Thu, 29-Jan-2015 1:45pm EST
NOT Current
Overcast
Overcast
 Wind from calm
Wind: Calm
Clouds: Overcast
Visibility: 10 miles , 16 km
Cloud details: Overcast 8000 ft
2015/01/29 18:45 KFDK 291845Z 00000KT 10SM OVC080 02//M16 A3016
 
KESN - Easton/Newnam, Maryland, USA
Distance from station: SSE 48mi, 78km
Updated: Thu, 29-Jan-2015 2:50pm EST
Overcast
Overcast
 Wind from SSW
Wind: SSW 8 mph , 13 km/h
Temperature: 37°F , 3°C
Wind Chill: 31°F , -1°C
Dew Point: 16°F , -9°C
Humidity: 41%
Barometer: 30.21 inHg , 1023 hPa
Clouds: Overcast
Visibility: 10 miles , 16 km
Cloud details: Overcast 10000 ft
2015/01/29 19:50 KESN 291950Z 20007KT 10SM OVC100 03/M09 A3021
KDCA - Washington/Natl, Washington D.c., USA
Distance from station: SW 49mi, 79km
Updated: Thu, 29-Jan-2015 2:52pm EST
Overcast
Overcast
 Wind from SE
Wind: SE 10 mph , 17 km/h
Temperature: 37°F , 3°C
Wind Chill: 30°F , -1°C
Dew Point: 16°F , -9°C
Humidity: 41%
Barometer: 30.13 inHg , 1020.3 hPa
Clouds: Overcast
Visibility: 10 miles , 16 km
Cloud details: Few Clouds 6500 ft
Mostly cloudy 9000 ft
Overcast 12000 ft
2015/01/29 19:52 KDCA 291952Z 14009KT 10SM FEW065 BKN090 OVC120 03/M09 A3013 RMK AO2 SLP203 T00331094
 
KLNS - Lancaster, Pennsylvania, USA
Distance from station: N 49mi, 79km
Updated: Thu, 29-Jan-2015 2:53pm EST
Overcast
Overcast
 Wind from SE
Wind: SE 16 mph , 26 km/h
Temperature: 28°F , -2°C
Wind Chill: 16°F , -9°C
Dew Point: 12°F , -11°C
Humidity: 51%
Barometer: 30.09 inHg , 1019 hPa
Clouds: Overcast
Visibility: 10 miles , 16 km
Cloud details: Overcast 9500 ft
2015/01/29 19:53 KLNS 291953Z 14014KT 10SM OVC095 M02/M11 A3009 RMK AO2 PRESFR SLP194 T10171111
KILG - Wilmington, Delaware, USA
Distance from station: ENE 50mi, 81km
Updated: Thu, 29-Jan-2015 2:51pm EST
Overcast
Overcast
 Wind from S
Wind: S 9 mph , 15 km/h
Temperature: 32°F , 0°C
Wind Chill: 24°F , -4°C
Dew Point: 12°F , -11°C
Humidity: 44%
Barometer: 30.19 inHg , 1022.4 hPa
Clouds: Overcast
Visibility: 10 miles , 16 km
Cloud details: Overcast 11000 ft
2015/01/29 19:51 KILG 291951Z 17008KT 10SM OVC110 00/M11 A3019 RMK AO2 SLP223 T00001111